Time,TemperatureF,DewpointF,PressureIn,WindDirection,WindDirectionDegrees,WindSpeedMPH,WindSpeedGustMPH,Humidity,HourlyPrecipIn,Conditions,Clouds,dailyrainin,SoftwareType,DateUTC
2013-01-14 00:02:00,15.8,3.6,30.32,NE,54,0.0,0.0,58,0.00,,,0.00,WeatherDisplay:10.36,2013-01-14 06:02:00,
2013-01-14 00:07:00,15.6,3.4,30.32,NE,51,0.0,0.0,58,0.00,,,0.00,WeatherDisplay:10.36,2013-01-14 06:07:00,
2013-01-14 00:12:00,15.6,3.4,30.32,NE,51,0.0,0.0,58,0.00,,,0.00,WeatherDisplay:10.36,2013-01-14 06:12:00,
2013-01-14 00:17:00,15.3,3.1,30.35,NE,51,0.0,0.0,58,0.00,,,0.00,WeatherDisplay:10.36,2013-01-14 06:17:00,
2013-01-14 00:22:00,15.3,3.1,30.35,NE,50,0.0,0.0,58,0.00,,,0.00,WeatherDisplay:10.36,2013-01-14 06:22:00,
2013-01-14 00:27:00,15.1,2.9,30.35,NE,52,0.0,0.0,58,0.00,,,0.00,WeatherDisplay:10.36,2013-01-14 06:27:00,
2013-01-14 00:32:00,15.1,2.9,30.35,ENE,61,0.0,0.0,58,0.00,,,0.00,WeatherDisplay:10.36,2013-01-14 06:32:00,
2013-01-14 00:38:00,14.9,2.8,30.35,ENE,58,0.0,0.0,58,0.00,,,0.00,WeatherDisplay:10.36,2013-01-14 06:38:00,
2013-01-14 00:43:00,14.9,2.8,30.35,ENE,57,0.0,0.0,58,0.00,,,0.00,WeatherDisplay:10.36,2013-01-14 06:43:00,
2013-01-14 00:48:00,14.7,2.6,30.35,ENE,58,0.0,0.0,58,0.00,,,0.00,WeatherDisplay:10.36,2013-01-14 06:48:00,
2013-01-14 00:53:00,14.7,3.0,30.35,ENE,58,0.0,0.0,59,0.00,,,0.00,WeatherDisplay:10.36,2013-01-14 06:53:00,
2013-01-14 00:58:00,14.4,2.6,30.35,ENE,58,0.0,0.0,59,0.00,,,0.00,WeatherDisplay:10.36,2013-01-14 06:58:00,
2013-01-14 01:03:00,14.5,2.8,30.35,NE,56,0.0,0.0,59,0.00,,,0.00,WeatherDisplay:10.36,2013-01-14 07:03:00,
2013-01-14 01:08:00,14.5,2.8,30.35,ENE,58,0.0,0.0,59,0.00,,,0.00,WeatherDisplay:10.36,2013-01-14 07:08:00,
2013-01-14 01:13:00,14.5,2.8,30.35,NE,56,0.0,0.0,59,0.00,,,0.00,WeatherDisplay:10.36,2013-01-14 07:13:00,
2013-01-14 01:18:00,14.5,2.8,30.38,ENE,57,0.0,0.0,59,0.00,,,0.00,WeatherDisplay:10.36,2013-01-14 07:18:00,
2013-01-14 01:23:00,14.5,2.8,30.38,ENE,57,0.0,0.0,59,0.00,,,0.00,WeatherDisplay:10.36,2013-01-14 07:23:00,
2013-01-14 01:28:00,14.5,2.8,30.38,NE,56,0.0,0.0,59,0.00,,,0.00,WeatherDisplay:10.36,2013-01-14 07:28:00,
2013-01-14 01:33:00,14.5,3.2,30.38,ENE,58,0.0,0.0,60,0.00,,,0.00,WeatherDisplay:10.36,2013-01-14 07:33:00,
2013-01-14 01:38:00,14.5,3.2,30.38,ENE,57,0.0,0.0,60,0.00,,,0.00,WeatherDisplay:10.36,2013-01-14 07:38:00,
2013-01-14 01:43:00,14.5,3.2,30.38,NE,56,0.0,0.0,60,0.00,,,0.00,WeatherDisplay:10.36,2013-01-14 07:43:00,
2013-01-14 01:48:00,14.4,3.0,30.38,ENE,58,0.0,0.0,60,0.00,,,0.00,WeatherDisplay:10.36,2013-01-14 07:48:00,
2013-01-14 01:53:00,14.4,3.0,30.38,NE,54,0.0,0.0,60,0.00,,,0.00,WeatherDisplay:10.36,2013-01-14 07:53:00,
2013-01-14 01:58:00,14.5,3.2,30.38,NE,51,0.0,0.0,60,0.00,,,0.00,WeatherDisplay:10.36,2013-01-14 07:58:00,
2013-01-14 02:03:00,14.5,3.2,30.41,NE,50,2.7,0.0,60,0.00,,,0.00,WeatherDisplay:10.36,2013-01-14 08:03:00,
2013-01-14 02:08:00,14.7,3.3,30.41,NE,54,2.7,0.0,60,0.00,,,0.00,WeatherDisplay:10.36,2013-01-14 08:08:00,
2013-01-14 02:13:00,14.7,3.7,30.41,NE,53,0.0,0.0,61,0.00,,,0.00,WeatherDisplay:10.36,2013-01-14 08:13:00,
2013-01-14 02:18:00,14.7,3.7,30.41,NE,50,2.7,0.0,61,0.00,,,0.00,WeatherDisplay:10.36,2013-01-14 08:18:00,
2013-01-14 02:23:00,14.7,3.7,30.41,NE,50,0.0,0.0,61,0.00,,,0.00,WeatherDisplay:10.36,2013-01-14 08:23:00,
2013-01-14 02:28:00,14.5,3.5,30.41,NE,51,2.7,0.0,61,0.00,,,0.00,WeatherDisplay:10.36,2013-01-14 08:28:00,
2013-01-14 02:33:00,14.5,3.5,30.41,NE,51,0.0,0.0,61,0.00,,,0.00,WeatherDisplay:10.36,2013-01-14 08:33:00,
2013-01-14 02:38:00,14.4,3.4,30.41,NE,50,0.0,0.0,61,0.00,,,0.00,WeatherDisplay:10.36,2013-01-14 08:38:00,
2013-01-14 02:43:00,14.4,3.4,30.41,NE,51,0.0,0.0,61,0.00,,,0.00,WeatherDisplay:10.36,2013-01-14 08:43:00,
2013-01-14 02:48:00,14.4,3.4,30.41,NE,50,0.0,0.0,61,0.00,,,0.00,WeatherDisplay:10.36,2013-01-14 08:48:00,
2013-01-14 02:53:00,14.2,3.2,30.41,NE,51,0.0,0.0,61,0.00,,,0.00,WeatherDisplay:10.36,2013-01-14 08:53:00,
2013-01-14 02:58:00,14.2,3.2,30.41,NE,50,0.0,0.0,61,0.00,,,0.00,WeatherDisplay:10.36,2013-01-14 08:58:00,
2013-01-14 03:03:00,14.0,3.0,30.41,NE,49,0.0,0.0,61,0.00,,,0.00,WeatherDisplay:10.36,2013-01-14 09:03:00,
2013-01-14 03:08:00,13.6,2.7,30.41,NE,51,0.0,0.0,61,0.00,,,0.00,WeatherDisplay:10.36,2013-01-14 09:08:00,
2013-01-14 03:13:00,13.5,2.5,30.41,NE,51,0.0,0.0,61,0.00,,,0.00,WeatherDisplay:10.36,2013-01-14 09:13:00,
2013-01-14 03:18:00,13.5,2.5,30.41,NE,50,0.0,0.0,61,0.00,,,0.00,WeatherDisplay:10.36,2013-01-14 09:18:00,
2013-01-14 03:23:00,13.5,2.5,30.41,NE,51,0.0,0.0,61,0.00,,,0.00,WeatherDisplay:10.36,2013-01-14 09:23:00,
2013-01-14 03:28:00,13.5,2.5,30.41,NE,49,0.0,0.0,61,0.00,,,0.00,WeatherDisplay:10.36,2013-01-14 09:28:00,
2013-01-14 03:33:00,13.3,2.3,30.41,NE,51,0.0,0.0,61,0.00,,,0.00,WeatherDisplay:10.36,2013-01-14 09:33:00,
2013-01-14 03:38:00,13.3,2.3,30.41,NE,49,0.0,0.0,61,0.00,,,0.00,WeatherDisplay:10.36,2013-01-14 09:38:00,
2013-01-14 03:43:00,13.3,2.3,30.41,NE,49,0.0,0.0,61,0.00,,,0.00,WeatherDisplay:10.36,2013-01-14 09:43:00,
2013-01-14 03:48:00,13.3,2.3,30.41,NE,50,0.0,0.0,61,0.00,,,0.00,WeatherDisplay:10.36,2013-01-14 09:48:00,
2013-01-14 03:53:00,13.3,2.3,30.41,NE,51,0.0,0.0,61,0.00,,,0.00,WeatherDisplay:10.36,2013-01-14 09:53:00,
2013-01-14 03:58:00,13.1,2.2,30.41,NE,51,0.0,0.0,61,0.00,,,0.00,WeatherDisplay:10.36,2013-01-14 09:58:00,
2013-01-14 04:04:00,13.1,2.2,30.44,NE,50,0.0,0.0,61,0.00,,,0.00,WeatherDisplay:10.36,2013-01-14 10:04:00,
2013-01-14 04:09:00,12.9,2.0,30.44,NE,49,0.0,0.0,61,0.00,,,0.00,WeatherDisplay:10.36,2013-01-14 10:09:00,
2013-01-14 04:14:00,12.9,2.0,30.44,NE,51,0.0,0.0,61,0.00,,,0.00,WeatherDisplay:10.36,2013-01-14 10:14:00,
2013-01-14 04:19:00,13.1,2.2,30.44,NE,51,0.0,0.0,61,0.00,,,0.00,WeatherDisplay:10.36,2013-01-14 10:19:00,
2013-01-14 04:24:00,13.1,2.2,30.44,NE,50,0.0,0.0,61,0.00,,,0.00,WeatherDisplay:10.36,2013-01-14 10:24:00,
2013-01-14 04:29:00,13.1,2.2,30.44,NE,49,0.0,0.0,61,0.00,,,0.00,WeatherDisplay:10.36,2013-01-14 10:29:00,
2013-01-14 04:34:00,12.7,1.8,30.44,NE,50,0.0,0.0,61,0.00,,,0.00,WeatherDisplay:10.36,2013-01-14 10:34:00,
2013-01-14 04:39:00,12.6,1.6,30.44,NE,49,0.0,0.0,61,0.00,,,0.00,WeatherDisplay:10.36,2013-01-14 10:39:00,
2013-01-14 04:44:00,12.4,1.5,30.44,NE,51,0.0,0.0,61,0.00,,,0.00,WeatherDisplay:10.36,2013-01-14 10:44:00,
2013-01-14 04:49:00,12.2,1.3,30.44,NE,51,0.0,0.0,61,0.00,,,0.00,WeatherDisplay:10.36,2013-01-14 10:49:00,
2013-01-14 04:54:00,12.0,1.1,30.44,NE,50,0.0,0.0,61,0.00,,,0.00,WeatherDisplay:10.36,2013-01-14 10:54:00,
2013-01-14 04:59:00,12.0,1.1,30.44,NE,50,0.0,0.0,61,0.00,,,0.00,WeatherDisplay:10.36,2013-01-14 10:59:00,
2013-01-14 05:05:00,12.0,1.1,30.44,NE,49,0.0,0.0,61,0.00,,,0.00,WeatherDisplay:10.36,2013-01-14 11:05:00,
2013-01-14 05:11:00,11.8,1.0,30.44,NE,49,0.0,0.0,61,0.00,,,0.00,WeatherDisplay:10.36,2013-01-14 11:11:00,
2013-01-14 05:16:00,11.8,1.0,30.44,NE,51,0.0,0.0,61,0.00,,,0.00,WeatherDisplay:10.36,2013-01-14 11:16:00,
2013-01-14 05:21:00,12.0,1.1,30.44,NE,50,0.0,0.0,61,0.00,,,0.00,WeatherDisplay:10.36,2013-01-14 11:21:00,
2013-01-14 05:26:00,12.0,1.1,30.44,NE,51,0.0,0.0,61,0.00,,,0.00,WeatherDisplay:10.36,2013-01-14 11:26:00,
2013-01-14 05:31:00,12.2,1.3,30.41,NE,50,0.0,0.0,61,0.00,,,0.00,WeatherDisplay:10.36,2013-01-14 11:31:00,
2013-01-14 05:36:00,12.2,1.3,30.41,NE,51,0.0,0.0,61,0.00,,,0.00,WeatherDisplay:10.36,2013-01-14 11:36:00,
2013-01-14 05:41:00,12.2,1.3,30.41,NE,51,0.0,0.0,61,0.00,,,0.00,WeatherDisplay:10.36,2013-01-14 11:41:00,
2013-01-14 05:47:00,12.0,1.1,30.41,NE,51,0.0,0.0,61,0.00,,,0.00,WeatherDisplay:10.36,2013-01-14 11:47:00,
2013-01-14 05:52:00,12.0,1.1,30.41,NE,49,0.0,0.0,61,0.00,,,0.00,WeatherDisplay:10.36,2013-01-14 11:52:00,
2013-01-14 05:57:00,11.8,1.0,30.41,NE,49,0.0,0.0,61,0.00,,,0.00,WeatherDisplay:10.36,2013-01-14 11:57:00,
2013-01-14 06:03:00,12.0,1.1,30.41,NE,50,0.0,0.0,61,0.00,,,0.00,WeatherDisplay:10.36,2013-01-14 12:03:00,
2013-01-14 06:09:00,12.4,1.5,30.41,NE,49,0.0,0.0,61,0.00,,,0.00,WeatherDisplay:10.36,2013-01-14 12:09:00,
2013-01-14 06:15:00,12.2,1.3,30.41,NE,50,0.0,0.0,61,0.00,,,0.00,WeatherDisplay:10.36,2013-01-14 12:15:00,
2013-01-14 06:20:00,12.0,1.1,30.41,NE,50,0.0,0.0,61,0.00,,,0.00,WeatherDisplay:10.36,2013-01-14 12:20:00,
2013-01-14 06:25:00,11.8,1.0,30.41,NE,51,0.0,0.0,61,0.00,,,0.00,WeatherDisplay:10.36,2013-01-14 12:25:00,
2013-01-14 06:30:00,11.7,0.8,30.41,NE,50,0.0,0.0,61,0.00,,,0.00,WeatherDisplay:10.36,2013-01-14 12:30:00,
2013-01-14 06:35:00,11.7,0.8,30.44,NE,51,0.0,0.0,61,0.00,,,0.00,WeatherDisplay:10.36,2013-01-14 12:35:00,
2013-01-14 06:40:00,11.7,0.8,30.44,NE,50,0.0,0.0,61,0.00,,,0.00,WeatherDisplay:10.36,2013-01-14 12:40:00,
2013-01-14 06:45:00,11.5,0.6,30.44,NE,51,0.0,0.0,61,0.00,,,0.00,WeatherDisplay:10.36,2013-01-14 12:45:00,
2013-01-14 06:51:00,11.3,0.4,30.44,NE,51,0.0,0.0,61,0.00,,,0.00,WeatherDisplay:10.36,2013-01-14 12:51:00,
2013-01-14 06:56:00,11.1,0.3,30.44,NE,51,0.0,0.0,61,0.00,,,0.00,WeatherDisplay:10.36,2013-01-14 12:56:00,
2013-01-14 07:01:00,11.1,0.3,30.44,NE,50,0.0,0.0,61,0.00,,,0.00,WeatherDisplay:10.36,2013-01-14 13:01:00,
2013-01-14 07:06:00,10.9,0.1,30.44,NE,49,0.0,0.0,61,0.00,,,0.00,WeatherDisplay:10.36,2013-01-14 13:06:00,
2013-01-14 07:11:00,10.9,0.1,30.44,ENE,60,0.0,0.0,61,0.00,,,0.00,WeatherDisplay:10.36,2013-01-14 13:11:00,
2013-01-14 07:16:00,11.1,0.3,30.44,ENE,62,0.0,0.0,61,0.00,,,0.00,WeatherDisplay:10.36,2013-01-14 13:16:00,
2013-01-14 07:21:00,11.3,0.4,30.44,NE,51,2.7,0.0,61,0.00,,,0.00,WeatherDisplay:10.36,2013-01-14 13:21:00,
2013-01-14 07:26:00,11.5,0.6,30.44,NE,48,2.7,0.0,61,0.00,,,0.00,WeatherDisplay:10.36,2013-01-14 13:26:00,
2013-01-14 07:31:00,11.5,0.6,30.44,NE,48,0.0,0.0,61,0.00,,,0.00,WeatherDisplay:10.36,2013-01-14 13:31:00,
2013-01-14 07:36:00,11.7,0.8,30.41,ENE,68,0.0,0.0,61,0.00,,,0.00,WeatherDisplay:10.36,2013-01-14 13:36:00,
2013-01-14 07:41:00,11.8,1.0,30.41,NE,53,0.0,0.0,61,0.00,,,0.00,WeatherDisplay:10.36,2013-01-14 13:41:00,
2013-01-14 07:47:00,12.0,1.1,30.44,NE,49,4.6,4.6,61,0.00,,,0.00,WeatherDisplay:10.36,2013-01-14 13:47:00,
2013-01-14 07:52:00,12.2,1.3,30.44,NE,49,3.5,0.0,61,0.00,,,0.00,WeatherDisplay:10.36,2013-01-14 13:52:00,
2013-01-14 07:57:00,12.6,1.6,30.44,North,351,3.5,0.0,61,0.00,,,0.00,WeatherDisplay:10.36,2013-01-14 13:57:00,
2013-01-14 08:02:00,12.7,1.8,31.24,North,351,0.0,0.0,61,0.00,,,0.00,WeatherDisplay:10.36,2013-01-14 14:02:00,
2013-01-14 08:07:00,12.9,2.0,31.24,SSW,211,0.0,3.1,61,0.00,,,0.00,WeatherDisplay:10.36,2013-01-14 14:07:00,
2013-01-14 08:12:00,13.3,2.3,31.24,NE,48,3.6,0.0,61,0.00,,,0.00,WeatherDisplay:10.36,2013-01-14 14:12:00,
2013-01-14 08:17:00,13.6,2.7,30.44,NE,47,0.0,0.0,61,0.00,,,0.00,WeatherDisplay:10.36,2013-01-14 14:17:00,
2013-01-14 08:22:00,14.0,5.7,30.44,NE,49,0.0,0.0,69,0.00,,,0.00,WeatherDisplay:10.36,2013-01-14 14:22:00,
2013-01-14 08:28:00,14.9,6.6,30.44,NE,48,3.5,0.0,69,0.00,,,0.00,WeatherDisplay:10.36,2013-01-14 14:28:00,
2013-01-14 08:33:00,15.4,7.1,30.44,NE,46,2.7,2.7,69,0.00,,,0.00,WeatherDisplay:10.36,2013-01-14 14:33:00,
2013-01-14 08:38:00,16.3,8.3,30.44,NE,48,3.6,3.6,70,0.00,,,0.00,WeatherDisplay:10.36,2013-01-14 14:38:00,
2013-01-14 08:43:00,17.1,9.0,30.44,NE,49,0.0,0.0,70,0.00,,,0.00,WeatherDisplay:10.36,2013-01-14 14:43:00,
2013-01-14 08:48:00,18.0,9.8,30.44,NE,48,0.0,0.0,70,0.00,,,0.00,WeatherDisplay:10.36,2013-01-14 14:48:00,
2013-01-14 08:53:00,18.9,10.4,30.44,NE,46,0.0,0.0,69,0.00,,,0.00,WeatherDisplay:10.36,2013-01-14 14:53:00,
2013-01-14 08:58:00,19.4,10.9,30.44,NE,48,0.0,0.0,69,0.00,,,0.00,WeatherDisplay:10.36,2013-01-14 14:58:00,
2013-01-14 09:03:00,20.1,11.6,30.44,NE,47,3.5,3.5,69,0.00,,,0.00,WeatherDisplay:10.36,2013-01-14 15:03:00,
2013-01-14 09:08:00,20.7,12.1,30.44,NE,45,4.0,4.0,69,0.00,,,0.00,WeatherDisplay:10.36,2013-01-14 15:08:00,
2013-01-14 09:13:00,20.8,11.9,30.44,NE,47,3.6,0.0,68,0.00,,,0.00,WeatherDisplay:10.36,2013-01-14 15:13:00,
2013-01-14 09:18:00,20.7,11.4,30.47,NE,46,3.1,0.0,67,0.00,,,0.00,WeatherDisplay:10.36,2013-01-14 15:18:00,
2013-01-14 09:23:00,20.5,10.9,30.47,NE,49,0.0,0.0,66,0.00,,,0.00,WeatherDisplay:10.36,2013-01-14 15:23:00,
2013-01-14 09:28:00,20.5,10.6,30.47,NE,49,0.0,0.0,65,0.00,,,0.00,WeatherDisplay:10.36,2013-01-14 15:28:00,
2013-01-14 09:33:00,20.5,10.2,30.50,NE,47,5.8,5.8,64,0.00,,,0.00,WeatherDisplay:10.36,2013-01-14 15:33:00,
2013-01-14 09:38:00,20.3,10.1,30.50,NE,46,0.0,0.0,64,0.00,,,0.00,WeatherDisplay:10.36,2013-01-14 15:38:00,
2013-01-14 09:43:00,20.3,9.7,30.50,NE,49,0.0,0.0,63,0.00,,,0.00,WeatherDisplay:10.36,2013-01-14 15:43:00,
2013-01-14 09:48:00,20.5,9.5,30.50,NE,48,0.0,0.0,62,0.00,,,0.00,WeatherDisplay:10.36,2013-01-14 15:48:00,
2013-01-14 09:53:00,20.5,9.2,30.50,NE,47,0.0,0.0,61,0.00,,,0.00,WeatherDisplay:10.36,2013-01-14 15:53:00,
2013-01-14 09:58:00,20.8,9.5,30.50,NE,51,0.0,0.0,61,0.00,,,0.00,WeatherDisplay:10.36,2013-01-14 15:58:00,
2013-01-14 10:03:00,21.0,9.3,30.47,NE,50,0.0,0.0,60,0.00,,,0.00,WeatherDisplay:10.36,2013-01-14 16:03:00,
2013-01-14 10:08:00,21.4,9.6,30.47,NE,49,0.0,0.0,60,0.00,,,0.00,WeatherDisplay:10.36,2013-01-14 16:08:00,
2013-01-14 10:13:00,21.7,9.6,30.47,NE,50,0.0,0.0,59,0.00,,,0.00,WeatherDisplay:10.36,2013-01-14 16:13:00,
2013-01-14 10:18:00,22.1,9.6,30.47,NE,47,3.5,0.0,58,0.00,,,0.00,WeatherDisplay:10.36,2013-01-14 16:18:00,
2013-01-14 10:23:00,22.3,8.9,30.47,North,351,4.6,0.0,56,0.00,,,0.00,WeatherDisplay:10.36,2013-01-14 16:23:00,
2013-01-14 10:28:00,22.1,7.6,30.47,NE,47,3.5,3.5,53,0.00,,,0.00,WeatherDisplay:10.36,2013-01-14 16:28:00,
2013-01-14 10:33:00,21.9,7.0,31.06,NE,48,4.9,4.9,52,0.00,,,0.00,WeatherDisplay:10.36,2013-01-14 16:33:00,
2013-01-14 10:38:00,21.9,6.1,31.06,NE,51,0.0,0.0,50,0.00,,,0.00,WeatherDisplay:10.36,2013-01-14 16:38:00,
2013-01-14 10:43:00,22.3,6.4,31.06,NE,47,0.0,0.0,50,0.00,,,0.00,WeatherDisplay:10.36,2013-01-14 16:43:00,
2013-01-14 10:48:00,23.0,6.7,30.47,North,351,6.3,6.3,49,0.00,,,0.00,WeatherDisplay:10.36,2013-01-14 16:48:00,
2013-01-14 10:53:00,22.8,5.1,30.47,NNE,27,0.0,0.0,46,0.00,,,0.00,WeatherDisplay:10.36,2013-01-14 16:53:00,
2013-01-14 10:58:00,23.0,5.3,30.47,NNE,28,4.5,0.0,46,0.00,,,0.00,WeatherDisplay:10.36,2013-01-14 16:58:00,
2013-01-14 11:03:00,23.0,4.8,31.33,North,351,0.0,0.0,45,0.00,,,0.00,WeatherDisplay:10.36,2013-01-14 17:03:00,
2013-01-14 11:08:00,23.0,4.8,31.33,NE,46,4.5,4.5,45,0.00,,,0.00,WeatherDisplay:10.36,2013-01-14 17:08:00,
2013-01-14 11:13:00,23.0,4.3,31.33,NE,46,6.9,6.9,44,0.00,,,0.00,WeatherDisplay:10.36,2013-01-14 17:13:00,
2013-01-14 11:18:00,23.2,4.0,31.27,NNE,26,2.7,3.6,43,0.00,,,0.00,WeatherDisplay:10.36,2013-01-14 17:18:00,
2013-01-14 11:23:00,23.0,3.8,31.27,North,351,4.9,4.9,43,0.00,,,0.00,WeatherDisplay:10.36,2013-01-14 17:23:00,
2013-01-14 11:28:00,23.0,3.8,31.27,WSW,244,5.8,5.8,43,0.00,,,0.00,WeatherDisplay:10.36,2013-01-14 17:28:00,
2013-01-14 11:33:00,23.2,4.0,30.47,North,351,4.0,4.0,43,0.00,,,0.00,WeatherDisplay:10.36,2013-01-14 17:33:00,
2013-01-14 11:38:00,24.4,5.1,30.47,ESE,113,3.6,3.6,43,0.00,,,0.00,WeatherDisplay:10.36,2013-01-14 17:38:00,
2013-01-14 11:43:00,25.2,5.8,30.47,NE,45,4.6,4.6,43,0.00,,,0.00,WeatherDisplay:10.36,2013-01-14 17:43:00,
2013-01-14 11:48:00,25.5,6.1,30.47,NE,48,4.0,4.0,43,0.00,,,0.00,WeatherDisplay:10.36,2013-01-14 17:48:00,
2013-01-14 11:53:00,25.7,6.3,30.47,ENE,59,4.0,4.0,43,0.00,,,0.00,WeatherDisplay:10.36,2013-01-14 17:53:00,
2013-01-14 11:58:00,26.2,6.2,30.47,NNE,28,3.1,3.6,42,0.00,,,0.00,WeatherDisplay:10.36,2013-01-14 17:58:00,
2013-01-14 12:03:00,25.5,4.5,30.44,NNE,27,6.9,6.9,40,0.00,,,0.00,WeatherDisplay:10.36,2013-01-14 18:03:00,
2013-01-14 12:08:00,25.2,4.2,30.44,NE,45,6.9,6.9,40,0.00,,,0.00,WeatherDisplay:10.36,2013-01-14 18:08:00,
2013-01-14 12:13:00,25.7,5.2,30.44,SE,141,8.1,8.1,41,0.00,,,0.00,WeatherDisplay:10.36,2013-01-14 18:13:00,
2013-01-14 12:18:00,25.9,4.3,31.03,North,351,5.8,5.8,39,0.00,,,0.00,WeatherDisplay:10.36,2013-01-14 18:18:00,
2013-01-14 12:23:00,26.1,4.4,31.03,NNE,30,0.0,2.7,39,0.00,,,0.00,WeatherDisplay:10.36,2013-01-14 18:23:00,
2013-01-14 12:28:00,26.2,4.6,31.03,West,265,4.9,4.9,39,0.00,,,0.00,WeatherDisplay:10.36,2013-01-14 18:28:00,
2013-01-14 12:33:00,26.2,3.5,30.44,NNE,30,5.8,5.8,37,0.00,,,0.00,WeatherDisplay:10.36,2013-01-14 18:33:00,
2013-01-14 12:38:00,25.9,2.5,30.44,North,351,4.0,4.0,36,0.00,,,0.00,WeatherDisplay:10.36,2013-01-14 18:38:00,
2013-01-14 12:43:00,26.2,2.9,30.44,NE,48,6.9,6.9,36,0.00,,,0.00,WeatherDisplay:10.36,2013-01-14 18:43:00,
2013-01-14 12:48:00,26.6,3.8,30.44,NE,45,2.7,3.1,37,0.00,,,0.00,WeatherDisplay:10.36,2013-01-14 18:48:00,
2013-01-14 12:53:00,26.6,2.6,30.44,NNE,28,5.8,5.8,35,0.00,,,0.00,WeatherDisplay:10.36,2013-01-14 18:53:00,
2013-01-14 12:58:00,26.1,2.1,30.44,NNE,29,4.0,0.0,35,0.00,,,0.00,WeatherDisplay:10.36,2013-01-14 18:58:00,
2013-01-14 13:03:00,26.1,2.1,31.21,North,351,0.0,0.0,35,0.00,,,0.00,WeatherDisplay:10.36,2013-01-14 19:03:00,
2013-01-14 13:08:00,26.2,2.3,31.21,NE,45,0.0,0.0,35,0.00,,,0.00,WeatherDisplay:10.36,2013-01-14 19:08:00,
2013-01-14 13:13:00,27.0,3.5,31.21,NE,48,4.0,0.0,36,0.00,,,0.00,WeatherDisplay:10.36,2013-01-14 19:13:00,
2013-01-14 13:18:00,27.1,3.7,30.44,NNE,26,3.5,0.0,36,0.00,,,0.00,WeatherDisplay:10.36,2013-01-14 19:18:00,
2013-01-14 13:23:00,27.1,2.4,30.44,North,351,7.4,7.4,34,0.00,,,0.00,WeatherDisplay:10.36,2013-01-14 19:23:00,
2013-01-14 13:29:00,26.2,1.6,30.44,NNE,30,4.9,4.9,34,0.00,,,0.00,WeatherDisplay:10.36,2013-01-14 19:29:00,
2013-01-14 13:34:00,25.9,1.3,30.41,NE,45,0.0,0.0,34,0.00,,,0.00,WeatherDisplay:10.36,2013-01-14 19:34:00,
2013-01-14 13:40:00,25.9,1.3,30.41,NE,46,5.8,5.8,34,0.00,,,0.00,WeatherDisplay:10.36,2013-01-14 19:40:00,
2013-01-14 13:45:00,26.1,1.5,30.41,NNE,25,4.6,4.6,34,0.00,,,0.00,WeatherDisplay:10.36,2013-01-14 19:45:00,
2013-01-14 13:50:00,26.2,2.3,30.41,NNE,32,4.6,4.6,35,0.00,,,0.00,WeatherDisplay:10.36,2013-01-14 19:50:00,
2013-01-14 13:55:00,26.2,1.6,30.41,NE,44,4.9,4.9,34,0.00,,,0.00,WeatherDisplay:10.36,2013-01-14 19:55:00,
2013-01-14 14:00:00,26.1,1.5,30.41,North,351,4.6,4.6,34,0.00,,,0.00,WeatherDisplay:10.36,2013-01-14 20:00:00,
2013-01-14 14:05:00,26.2,2.3,31.21,NNE,29,4.6,4.6,35,0.00,,,0.00,WeatherDisplay:10.36,2013-01-14 20:05:00,
2013-01-14 14:10:00,26.2,2.9,31.21,NNE,33,4.6,4.6,36,0.00,,,0.00,WeatherDisplay:10.36,2013-01-14 20:10:00,
2013-01-14 14:15:00,26.4,3.6,31.21,West,265,4.6,4.6,37,0.00,,,0.00,WeatherDisplay:10.36,2013-01-14 20:15:00,
2013-01-14 14:20:00,26.8,4.5,30.41,NNE,32,4.6,4.6,38,0.00,,,0.00,WeatherDisplay:10.36,2013-01-14 20:20:00,
2013-01-14 14:25:00,26.8,4.5,30.41,NE,35,5.8,5.8,38,0.00,,,0.00,WeatherDisplay:10.36,2013-01-14 20:25:00,
2013-01-14 14:30:00,26.6,3.2,30.41,NNE,32,4.6,4.6,36,0.00,,,0.00,WeatherDisplay:10.36,2013-01-14 20:30:00,
2013-01-14 14:35:00,26.1,2.1,30.41,North,351,4.0,4.0,35,0.00,,,0.00,WeatherDisplay:10.36,2013-01-14 20:35:00,
2013-01-14 14:40:00,25.9,2.5,30.41,NE,36,6.7,6.7,36,0.00,,,0.00,WeatherDisplay:10.36,2013-01-14 20:40:00,
2013-01-14 14:45:00,26.1,3.3,30.41,ENE,70,4.9,4.9,37,0.00,,,0.00,WeatherDisplay:10.36,2013-01-14 20:45:00,
2013-01-14 14:50:00,26.2,3.5,30.41,East,86,4.0,4.0,37,0.00,,,0.00,WeatherDisplay:10.36,2013-01-14 20:50:00,
2013-01-14 14:55:00,26.4,3.6,30.41,NNE,26,5.8,5.8,37,0.00,,,0.00,WeatherDisplay:10.36,2013-01-14 20:55:00,
2013-01-14 15:00:00,26.1,2.1,30.41,South,187,4.9,4.9,35,0.00,,,0.00,WeatherDisplay:10.36,2013-01-14 21:00:00,
2013-01-14 15:05:00,25.5,1.6,30.41,NNE,32,4.9,4.9,35,0.00,,,0.00,WeatherDisplay:10.36,2013-01-14 21:05:00,
2013-01-14 15:10:00,25.3,2.1,30.41,NNE,30,5.8,5.8,36,0.00,,,0.00,WeatherDisplay:10.36,2013-01-14 21:10:00,
2013-01-14 15:15:00,25.5,2.2,30.41,NNE,32,4.6,4.6,36,0.00,,,0.00,WeatherDisplay:10.36,2013-01-14 21:15:00,
2013-01-14 15:20:00,25.5,2.2,30.41,NNE,32,3.6,3.6,36,0.00,,,0.00,WeatherDisplay:10.36,2013-01-14 21:20:00,
2013-01-14 15:25:00,25.7,2.4,30.41,NNE,33,6.9,6.9,36,0.00,,,0.00,WeatherDisplay:10.36,2013-01-14 21:25:00,
2013-01-14 15:30:00,25.7,2.4,30.41,ENE,65,4.0,4.0,36,0.00,,,0.00,WeatherDisplay:10.36,2013-01-14 21:30:00,
2013-01-14 15:35:00,25.7,3.0,30.41,South,190,5.8,5.8,37,0.00,,,0.00,WeatherDisplay:10.36,2013-01-14 21:35:00,
2013-01-14 15:40:00,25.7,3.0,30.41,NE,36,5.8,5.8,37,0.00,,,0.00,WeatherDisplay:10.36,2013-01-14 21:40:00,
2013-01-14 15:45:00,25.5,2.8,30.41,NNE,31,4.5,0.0,37,0.00,,,0.00,WeatherDisplay:10.36,2013-01-14 21:45:00,
2013-01-14 15:50:00,25.5,2.8,30.41,NNE,31,4.6,4.6,37,0.00,,,0.00,WeatherDisplay:10.36,2013-01-14 21:50:00,
2013-01-14 15:55:00,25.3,3.2,30.41,NNE,33,3.5,3.5,38,0.00,,,0.00,WeatherDisplay:10.36,2013-01-14 21:55:00,
2013-01-14 16:00:00,25.3,3.2,30.41,East,91,0.0,0.0,38,0.00,,,0.00,WeatherDisplay:10.36,2013-01-14 22:00:00,
2013-01-14 16:05:00,25.3,3.2,30.41,South,189,3.5,0.0,38,0.00,,,0.00,WeatherDisplay:10.36,2013-01-14 22:05:00,
2013-01-14 16:10:00,25.3,2.7,30.41,NNE,27,0.0,0.0,37,0.00,,,0.00,WeatherDisplay:10.36,2013-01-14 22:10:00,
2013-01-14 16:15:00,25.3,3.2,30.41,NNE,33,3.6,0.0,38,0.00,,,0.00,WeatherDisplay:10.36,2013-01-14 22:15:00,
2013-01-14 16:20:00,25.2,2.5,30.44,NNE,33,0.0,0.0,37,0.00,,,0.00,WeatherDisplay:10.36,2013-01-14 22:20:00,
2013-01-14 16:25:00,25.0,2.3,30.44,NNE,31,3.5,3.6,37,0.00,,,0.00,WeatherDisplay:10.36,2013-01-14 22:25:00,
2013-01-14 16:30:00,24.6,2.0,30.44,NNE,31,0.0,0.0,37,0.00,,,0.00,WeatherDisplay:10.36,2013-01-14 22:30:00,
2013-01-14 16:35:00,24.6,2.0,30.41,NNE,31,0.0,0.0,37,0.00,,,0.00,WeatherDisplay:10.36,2013-01-14 22:35:00,
2013-01-14 16:40:00,24.4,2.4,30.41,NNE,31,0.0,0.0,38,0.00,,,0.00,WeatherDisplay:10.36,2013-01-14 22:40:00,
2013-01-14 16:46:00,24.3,1.7,30.41,NNE,31,0.0,0.0,37,0.00,,,0.00,WeatherDisplay:10.36,2013-01-14 22:46:00,
2013-01-14 16:51:00,23.9,1.9,30.41,NNE,30,0.0,0.0,38,0.00,,,0.00,WeatherDisplay:10.36,2013-01-14 22:51:00,
2013-01-14 16:56:00,23.9,1.9,30.41,NNE,31,0.0,0.0,38,0.00,,,0.00,WeatherDisplay:10.36,2013-01-14 22:56:00,
2013-01-14 17:01:00,23.7,2.3,30.41,NNE,30,0.0,0.0,39,0.00,,,0.00,WeatherDisplay:10.36,2013-01-14 23:01:00,
2013-01-14 17:06:00,23.5,2.2,30.41,NNE,30,0.0,0.0,39,0.00,,,0.00,WeatherDisplay:10.36,2013-01-14 23:06:00,
2013-01-14 17:11:00,23.4,2.0,30.41,NNE,32,3.6,3.6,39,0.00,,,0.00,WeatherDisplay:10.36,2013-01-14 23:11:00,
2013-01-14 17:16:00,23.2,2.4,30.41,NNE,31,0.0,0.0,40,0.00,,,0.00,WeatherDisplay:10.36,2013-01-14 23:16:00,
2013-01-14 17:21:00,23.2,2.4,30.41,NNE,31,0.0,0.0,40,0.00,,,0.00,WeatherDisplay:10.36,2013-01-14 23:21:00,
2013-01-14 17:26:00,23.0,2.8,30.41,NNE,31,0.0,0.0,41,0.00,,,0.00,WeatherDisplay:10.36,2013-01-14 23:26:00,
2013-01-14 17:31:00,22.8,3.1,30.41,NNE,31,0.0,0.0,42,0.00,,,0.00,WeatherDisplay:10.36,2013-01-14 23:31:00,
2013-01-14 17:36:00,22.6,3.0,30.41,NNE,31,0.0,0.0,42,0.00,,,0.00,WeatherDisplay:10.36,2013-01-14 23:36:00,
2013-01-14 17:41:00,22.5,2.8,30.41,NNE,31,0.0,0.0,42,0.00,,,0.00,WeatherDisplay:10.36,2013-01-14 23:41:00,
2013-01-14 17:46:00,22.3,2.6,30.41,NNE,31,0.0,0.0,42,0.00,,,0.00,WeatherDisplay:10.36,2013-01-14 23:46:00,
2013-01-14 17:51:00,22.1,3.0,30.41,NNE,30,0.0,0.0,43,0.00,,,0.00,WeatherDisplay:10.36,2013-01-14 23:51:00,
2013-01-14 17:56:00,22.1,3.0,30.41,NNE,31,0.0,0.0,43,0.00,,,0.00,WeatherDisplay:10.36,2013-01-14 23:56:00,
2013-01-14 18:01:00,21.9,2.8,30.41,NNE,31,0.0,0.0,43,0.00,,,0.00,WeatherDisplay:10.36,2013-01-15 00:01:00,
2013-01-14 18:06:00,21.9,3.3,30.41,NNE,31,0.0,0.0,44,0.00,,,0.00,WeatherDisplay:10.36,2013-01-15 00:06:00,
2013-01-14 18:11:00,21.7,3.1,30.41,NNE,31,0.0,0.0,44,0.00,,,0.00,WeatherDisplay:10.36,2013-01-15 00:11:00,
2013-01-14 18:16:00,21.7,3.1,30.41,NNE,32,0.0,0.0,44,0.00,,,0.00,WeatherDisplay:10.36,2013-01-15 00:16:00,
2013-01-14 18:21:00,21.6,3.0,30.41,NNE,32,0.0,0.0,44,0.00,,,0.00,WeatherDisplay:10.36,2013-01-15 00:21:00,
2013-01-14 18:26:00,21.4,2.8,30.41,NNE,31,0.0,0.0,44,0.00,,,0.00,WeatherDisplay:10.36,2013-01-15 00:26:00,
2013-01-14 18:31:00,21.4,3.3,30.41,NNE,31,0.0,0.0,45,0.00,,,0.00,WeatherDisplay:10.36,2013-01-15 00:31:00,
2013-01-14 18:36:00,21.4,3.3,30.41,NNE,31,0.0,0.0,45,0.00,,,0.00,WeatherDisplay:10.36,2013-01-15 00:36:00,
2013-01-14 18:41:00,21.2,3.1,30.41,NNE,31,0.0,0.0,45,0.00,,,0.00,WeatherDisplay:10.36,2013-01-15 00:41:00,
2013-01-14 18:46:00,21.2,3.1,30.41,NNE,31,0.0,0.0,45,0.00,,,0.00,WeatherDisplay:10.36,2013-01-15 00:46:00,
2013-01-14 18:51:00,21.0,3.4,30.41,NNE,31,0.0,0.0,46,0.00,,,0.00,WeatherDisplay:10.36,2013-01-15 00:51:00,
2013-01-14 18:56:00,21.0,3.4,30.41,NNE,31,0.0,0.0,46,0.00,,,0.00,WeatherDisplay:10.36,2013-01-15 00:56:00,
2013-01-14 19:01:00,20.8,3.3,30.41,NNE,31,0.0,0.0,46,0.00,,,0.00,WeatherDisplay:10.36,2013-01-15 01:01:00,
2013-01-14 19:06:00,20.7,3.1,30.41,NNE,31,0.0,0.0,46,0.00,,,0.00,WeatherDisplay:10.36,2013-01-15 01:06:00,
2013-01-14 19:11:00,20.5,3.4,30.41,NNE,31,0.0,0.0,47,0.00,,,0.00,WeatherDisplay:10.36,2013-01-15 01:11:00,
2013-01-14 19:16:00,20.5,3.4,30.41,NNE,31,0.0,0.0,47,0.00,,,0.00,WeatherDisplay:10.36,2013-01-15 01:16:00,
2013-01-14 19:21:00,20.5,3.4,30.41,NNE,31,0.0,0.0,47,0.00,,,0.00,WeatherDisplay:10.36,2013-01-15 01:21:00,
2013-01-14 19:26:00,20.3,3.7,30.41,NNE,31,0.0,0.0,48,0.00,,,0.00,WeatherDisplay:10.36,2013-01-15 01:26:00,
2013-01-14 19:31:00,20.1,3.5,30.41,NNE,31,0.0,0.0,48,0.00,,,0.00,WeatherDisplay:10.36,2013-01-15 01:31:00,
2013-01-14 19:36:00,19.9,3.4,30.41,NNE,31,0.0,0.0,48,0.00,,,0.00,WeatherDisplay:10.36,2013-01-15 01:36:00,
2013-01-14 19:41:00,19.8,3.2,30.41,NNE,31,0.0,0.0,48,0.00,,,0.00,WeatherDisplay:10.36,2013-01-15 01:41:00,
2013-01-14 19:46:00,19.6,3.5,30.41,NNE,31,0.0,0.0,49,0.00,,,0.00,WeatherDisplay:10.36,2013-01-15 01:46:00,
2013-01-14 19:51:00,19.6,3.5,30.41,NNE,32,0.0,0.0,49,0.00,,,0.00,WeatherDisplay:10.36,2013-01-15 01:51:00,
2013-01-14 19:56:00,19.4,3.3,30.41,NNE,31,0.0,0.0,49,0.00,,,0.00,WeatherDisplay:10.36,2013-01-15 01:56:00,
2013-01-14 20:01:00,19.4,3.3,30.41,NNE,31,0.0,0.0,49,0.00,,,0.00,WeatherDisplay:10.36,2013-01-15 02:01:00,
2013-01-14 20:06:00,19.2,3.6,30.41,NNE,31,0.0,0.0,50,0.00,,,0.00,WeatherDisplay:10.36,2013-01-15 02:06:00,
2013-01-14 20:11:00,19.2,3.6,30.41,NNE,32,0.0,0.0,50,0.00,,,0.00,WeatherDisplay:10.36,2013-01-15 02:11:00,
2013-01-14 20:16:00,19.2,3.6,30.41,NNE,31,0.0,0.0,50,0.00,,,0.00,WeatherDisplay:10.36,2013-01-15 02:16:00,
2013-01-14 20:21:00,19.2,4.0,30.41,NNE,32,0.0,0.0,51,0.00,,,0.00,WeatherDisplay:10.36,2013-01-15 02:21:00,
2013-01-14 20:26:00,19.0,3.9,30.41,NNE,31,0.0,0.0,51,0.00,,,0.00,WeatherDisplay:10.36,2013-01-15 02:26:00,
2013-01-14 20:31:00,19.0,3.9,30.41,NNE,31,0.0,0.0,51,0.00,,,0.00,WeatherDisplay:10.36,2013-01-15 02:31:00,
2013-01-14 20:36:00,19.0,3.9,30.41,NNE,31,0.0,0.0,51,0.00,,,0.00,WeatherDisplay:10.36,2013-01-15 02:36:00,
2013-01-14 20:41:00,18.9,4.1,30.41,NNE,32,0.0,0.0,52,0.00,,,0.00,WeatherDisplay:10.36,2013-01-15 02:41:00,
2013-01-14 20:46:00,18.7,3.9,30.41,NNE,31,0.0,0.0,52,0.00,,,0.00,WeatherDisplay:10.36,2013-01-15 02:46:00,
2013-01-14 20:51:00,18.5,3.8,30.41,NNE,31,0.0,0.0,52,0.00,,,0.00,WeatherDisplay:10.36,2013-01-15 02:51:00,
2013-01-14 20:56:00,18.5,4.2,30.41,NNE,31,0.0,0.0,53,0.00,,,0.00,WeatherDisplay:10.36,2013-01-15 02:56:00,
2013-01-14 21:01:00,18.3,4.0,30.41,NNE,31,0.0,0.0,53,0.00,,,0.00,WeatherDisplay:10.36,2013-01-15 03:01:00,
2013-01-14 21:06:00,18.1,3.9,30.41,NNE,31,0.0,0.0,53,0.00,,,0.00,WeatherDisplay:10.36,2013-01-15 03:06:00,
2013-01-14 21:11:00,18.0,3.7,30.41,NNE,32,0.0,0.0,53,0.00,,,0.00,WeatherDisplay:10.36,2013-01-15 03:11:00,
2013-01-14 21:16:00,18.0,3.7,30.41,NNE,31,0.0,0.0,53,0.00,,,0.00,WeatherDisplay:10.36,2013-01-15 03:16:00,
2013-01-14 21:21:00,17.8,3.9,30.41,NNE,31,0.0,0.0,54,0.00,,,0.00,WeatherDisplay:10.36,2013-01-15 03:21:00,
2013-01-14 21:26:00,17.6,3.8,30.41,NNE,31,0.0,0.0,54,0.00,,,0.00,WeatherDisplay:10.36,2013-01-15 03:26:00,
2013-01-14 21:31:00,17.4,3.6,30.41,NNE,32,0.0,0.0,54,0.00,,,0.00,WeatherDisplay:10.36,2013-01-15 03:31:00,
2013-01-14 21:36:00,17.4,3.6,30.41,NNE,31,0.0,0.0,54,0.00,,,0.00,WeatherDisplay:10.36,2013-01-15 03:36:00,
2013-01-14 21:41:00,17.2,3.4,30.41,NNE,31,0.0,0.0,54,0.00,,,0.00,WeatherDisplay:10.36,2013-01-15 03:41:00,
2013-01-14 21:46:00,17.1,3.3,30.41,NNE,31,0.0,0.0,54,0.00,,,0.00,WeatherDisplay:10.36,2013-01-15 03:46:00,
2013-01-14 21:51:00,16.9,3.1,30.41,NNE,31,0.0,0.0,54,0.00,,,0.00,WeatherDisplay:10.36,2013-01-15 03:51:00,
2013-01-14 21:56:00,16.7,2.9,30.41,NNE,32,0.0,0.0,54,0.00,,,0.00,WeatherDisplay:10.36,2013-01-15 03:56:00,
2013-01-14 22:01:00,16.7,2.9,30.41,NNE,31,0.0,0.0,54,0.00,,,0.00,WeatherDisplay:10.36,2013-01-15 04:01:00,
2013-01-14 22:06:00,16.5,3.1,30.41,NNE,31,0.0,0.0,55,0.00,,,0.00,WeatherDisplay:10.36,2013-01-15 04:06:00,
2013-01-14 22:11:00,16.5,3.1,30.41,NNE,31,0.0,0.0,55,0.00,,,0.00,WeatherDisplay:10.36,2013-01-15 04:11:00,
2013-01-14 22:16:00,16.3,3.0,30.41,NNE,32,0.0,0.0,55,0.00,,,0.00,WeatherDisplay:10.36,2013-01-15 04:16:00,
2013-01-14 22:21:00,16.3,3.0,30.41,NNE,31,0.0,0.0,55,0.00,,,0.00,WeatherDisplay:10.36,2013-01-15 04:21:00,
2013-01-14 22:26:00,16.3,3.0,30.41,NNE,31,0.0,0.0,55,0.00,,,0.00,WeatherDisplay:10.36,2013-01-15 04:26:00,
2013-01-14 22:31:00,16.2,3.2,30.41,NNE,31,0.0,0.0,56,0.00,,,0.00,WeatherDisplay:10.36,2013-01-15 04:31:00,
2013-01-14 22:36:00,16.0,3.0,30.41,NNE,31,0.0,0.0,56,0.00,,,0.00,WeatherDisplay:10.36,2013-01-15 04:36:00,
2013-01-14 22:41:00,15.8,2.9,30.41,NNE,31,0.0,0.0,56,0.00,,,0.00,WeatherDisplay:10.36,2013-01-15 04:41:00,
2013-01-14 22:46:00,15.8,2.9,30.41,NNE,32,0.0,0.0,56,0.00,,,0.00,WeatherDisplay:10.36,2013-01-15 04:46:00,
2013-01-14 22:51:00,15.6,2.7,30.41,NNE,32,0.0,0.0,56,0.00,,,0.00,WeatherDisplay:10.36,2013-01-15 04:51:00,
2013-01-14 22:56:00,15.6,2.7,30.41,NNE,31,0.0,0.0,56,0.00,,,0.00,WeatherDisplay:10.36,2013-01-15 04:56:00,
2013-01-14 23:00:00,15.3,2.3,30.41,NNE,31,0.0,0.0,56,0.00,,,0.00,WeatherDisplay:10.36,2013-01-15 05:00:00,
2013-01-14 23:01:00,15.3,2.3,30.41,NNE,31,0.0,0.0,56,0.00,,,0.00,WeatherDisplay:10.36,2013-01-15 05:01:00,
2013-01-14 23:04:00,15.3,2.3,30.41,NNE,31,0.0,0.0,56,0.00,,,0.00,WeatherDisplay:10.36,2013-01-15 05:04:00,
2013-01-14 23:06:00,15.1,2.2,30.41,NNE,32,0.0,0.0,56,0.00,,,0.00,WeatherDisplay:10.36,2013-01-15 05:06:00,
2013-01-14 23:11:00,15.1,2.2,30.41,NNE,31,0.0,0.0,56,0.00,,,0.00,WeatherDisplay:10.36,2013-01-15 05:11:00,
2013-01-14 23:17:00,14.9,2.4,30.41,NNE,31,0.0,0.0,57,0.00,,,0.00,WeatherDisplay:10.36,2013-01-15 05:17:00,
2013-01-14 23:22:00,14.9,2.4,30.41,NNE,31,0.0,0.0,57,0.00,,,0.00,WeatherDisplay:10.36,2013-01-15 05:22:00,
2013-01-14 23:27:00,15.1,2.6,30.41,NNE,31,0.0,0.0,57,0.00,,,0.00,WeatherDisplay:10.36,2013-01-15 05:27:00,
2013-01-14 23:32:00,14.9,2.4,30.41,NNE,31,0.0,0.0,57,0.00,,,0.00,WeatherDisplay:10.36,2013-01-15 05:32:00,
2013-01-14 23:37:00,14.9,2.8,30.41,NNE,31,0.0,0.0,58,0.00,,,0.00,WeatherDisplay:10.36,2013-01-15 05:37:00,
2013-01-14 23:42:00,14.7,2.6,30.41,NNE,31,0.0,0.0,58,0.00,,,0.00,WeatherDisplay:10.36,2013-01-15 05:42:00,
2013-01-14 23:47:00,14.7,2.6,30.41,NNE,31,0.0,0.0,58,0.00,,,0.00,WeatherDisplay:10.36,2013-01-15 05:47:00,
2013-01-14 23:52:00,14.7,2.6,30.41,NNE,31,0.0,0.0,58,0.00,,,0.00,WeatherDisplay:10.36,2013-01-15 05:52:00,
2013-01-14 23:57:00,14.5,2.4,30.41,NNE,31,0.0,0.0,58,0.00,,,0.00,WeatherDisplay:10.36,2013-01-15 05:57:00,